Chute-aux-Outardes, Canada
Current Conditions -  °F | °C
As of 1:00 AM on Thursday 29 Jan 2015 (Local Time) from CYBC Reporting Station
Overcast Overcast  
Wind Chill: -4°   Ceiling: 5000
Heat Index:   Visibility: 9mi
Dew Point:   Wind: 8mph
Humidity: 73%   Direction: 260°W
Pressure: 30.12"   Gusts: NA
Location:  49.13°N, 68.39°W
Report Text: CYBC 290600Z AUTO 26007KT 9SM OVC050 M13/M17 A3012 RMK SLP202
Loading
Personal Weather Stations






























Interactive Weather Map New forecast layout! Learn more

10-Day Weather Forecast

Advertisements
Track Severe Weather on mobile